createdAt,value
2019-02-20T00:02:22.708Z,5.80
2019-02-20T00:04:53.152Z,5.05
2019-02-20T00:07:23.791Z,5.12
2019-02-20T00:09:54.644Z,5.58
2019-02-20T00:12:25.399Z,6.15
2019-02-20T00:14:56.169Z,5.60
2019-02-20T00:17:26.805Z,5.75
2019-02-20T00:19:57.689Z,5.58
2019-02-20T00:22:28.435Z,6.90
2019-02-20T00:24:59.184Z,6.40
2019-02-20T00:27:29.842Z,6.50
2019-02-20T00:30:00.691Z,5.60
2019-02-20T00:32:31.448Z,6.85
2019-02-20T00:35:02.202Z,6.28
2019-02-20T00:37:33.959Z,6.28
2019-02-20T00:40:06.467Z,6.10
2019-02-20T00:42:36.902Z,6.10
2019-02-20T00:45:30.359Z,5.62
2019-02-20T00:48:08.703Z,6.33
2019-02-20T00:50:40.986Z,7.08
2019-02-20T00:53:22.274Z,6.72
2019-02-20T00:55:53.038Z,6.85
2019-02-20T00:58:23.881Z,8.28
2019-02-20T01:00:54.620Z,7.10
2019-02-20T01:03:25.296Z,7.70
2019-02-20T01:05:56.128Z,7.75
2019-02-20T01:08:26.900Z,7.72
2019-02-20T01:10:57.655Z,11.83
2019-02-20T01:13:28.510Z,13.22
2019-02-20T01:15:59.372Z,13.03
2019-02-20T01:18:30.247Z,13.22
2019-02-20T01:21:01.060Z,11.55
2019-02-20T01:23:31.932Z,9.45
2019-02-20T01:26:02.685Z,8.18
2019-02-20T01:28:33.342Z,8.73
2019-02-20T01:31:04.194Z,8.85
2019-02-20T01:33:34.948Z,8.58
2019-02-20T01:36:05.703Z,8.60
2019-02-20T01:38:37.478Z,8.43
2019-02-20T01:41:07.908Z,8.88
2019-02-20T01:43:38.782Z,9.45
2019-02-20T01:46:09.725Z,10.48
2019-02-20T01:48:40.494Z,8.80
2019-02-20T01:51:11.336Z,8.68
2019-02-20T01:53:42.205Z,7.25
2019-02-20T01:56:12.943Z,9.93
2019-02-20T01:58:43.613Z,10.85
2019-02-20T02:01:14.469Z,9.28
2019-02-20T02:03:45.103Z,9.80
2019-02-20T02:06:15.856Z,10.68
2019-02-20T02:08:46.525Z,12.00
2019-02-20T02:11:17.367Z,13.48
2019-02-20T02:13:48.135Z,13.90
2019-02-20T02:16:18.890Z,12.20
2019-02-20T02:18:49.744Z,15.45
2019-02-20T02:21:20.585Z,14.47
2019-02-20T02:23:51.362Z,15.38
2019-02-20T02:26:22.008Z,13.62
2019-02-20T02:31:22.288Z,12.00
2019-02-20T02:36:22.778Z,10.85
2019-02-20T02:38:54.550Z,10.80
2019-02-20T02:41:25.302Z,10.10
2019-02-20T02:43:55.962Z,10.93
2019-02-20T02:46:27.629Z,11.35
2019-02-20T02:48:58.379Z,11.73
2019-02-20T02:51:29.123Z,12.55
2019-02-20T02:53:59.873Z,15.20
2019-02-20T02:56:30.542Z,16.02
2019-02-20T02:59:01.279Z,17.98
2019-02-20T03:01:32.137Z,18.00
2019-02-20T03:04:02.912Z,17.27
2019-02-20T03:06:33.559Z,17.10
2019-02-20T03:09:05.215Z,18.87
2019-02-20T03:11:35.679Z,18.55
2019-02-20T03:14:06.541Z,19.10
2019-02-20T03:16:37.390Z,17.60
2019-02-20T03:19:08.146Z,18.70
2019-02-20T03:21:38.801Z,20.25
2019-02-20T03:24:09.633Z,18.82
2019-02-20T03:26:40.289Z,20.27
2019-02-20T03:29:11.061Z,20.77
2019-02-20T03:31:41.710Z,19.80
2019-02-20T03:34:12.453Z,20.43
2019-02-20T03:36:43.217Z,18.77
2019-02-20T03:39:14.996Z,20.40
2019-02-20T03:41:45.757Z,22.07
2019-02-20T03:44:16.380Z,20.95
2019-02-20T03:46:47.247Z,22.75
2019-02-20T03:49:18.009Z,23.55
2019-02-20T03:51:48.745Z,20.80
2019-02-20T03:54:19.413Z,23.32
2019-02-20T03:56:50.257Z,24.20
2019-02-20T03:59:21.031Z,20.72
2019-02-20T04:01:51.778Z,19.75
2019-02-20T04:04:22.634Z,18.87
2019-02-20T04:06:53.491Z,19.67
2019-02-20T04:09:24.247Z,19.12
2019-02-20T04:11:54.904Z,16.27
2019-02-20T04:14:25.751Z,16.10
2019-02-20T04:16:56.508Z,13.10
2019-02-20T04:19:27.258Z,13.58
2019-02-20T04:21:58.100Z,12.43
2019-02-20T04:24:28.975Z,12.70
2019-02-20T04:26:59.715Z,12.58
2019-02-20T04:29:30.376Z,11.48
2019-02-20T04:32:01.240Z,13.18
2019-02-20T04:34:31.987Z,13.15
2019-02-20T04:37:02.724Z,13.58
2019-02-20T04:39:34.317Z,13.48
2019-02-20T04:42:05.052Z,13.70
2019-02-20T04:44:35.720Z,15.53
2019-02-20T04:47:06.662Z,12.30
2019-02-20T04:49:37.318Z,13.22
2019-02-20T04:52:08.084Z,12.98
2019-02-20T04:54:38.940Z,16.52
2019-02-20T04:57:09.796Z,16.57
2019-02-20T04:59:40.429Z,17.92
2019-02-20T05:04:41.017Z,18.70
2019-02-20T05:07:11.687Z,15.32
2019-02-20T05:09:42.544Z,14.28
2019-02-20T05:12:14.731Z,15.63
2019-02-20T05:14:45.479Z,15.83
2019-02-20T05:17:16.132Z,14.23
2019-02-20T05:19:46.996Z,15.30
2019-02-20T05:22:17.843Z,26.50
2019-02-20T05:24:48.480Z,26.60
2019-02-20T05:29:49.187Z,19.25
2019-02-20T05:34:49.656Z,19.50
2019-02-20T05:37:20.410Z,19.27
2019-02-20T05:39:52.197Z,18.70
2019-02-20T05:42:22.637Z,19.65
2019-02-20T05:44:53.282Z,21.77
2019-02-20T05:47:24.345Z,20.30
2019-02-20T05:49:55.112Z,20.12
2019-02-20T05:52:25.870Z,18.00
2019-02-20T05:54:56.520Z,19.10
2019-02-20T05:57:27.400Z,18.05
2019-02-20T05:59:58.230Z,20.00
2019-02-20T06:02:29.091Z,20.32
2019-02-20T06:04:59.950Z,20.85
2019-02-20T06:07:30.700Z,21.85
2019-02-20T06:10:01.453Z,21.33
2019-02-20T06:12:33.623Z,22.50
2019-02-20T06:15:05.588Z,19.12
2019-02-20T06:17:36.167Z,20.55
2019-02-20T06:20:09.281Z,19.65
2019-02-20T06:22:39.909Z,17.10
2019-02-20T06:25:10.667Z,18.42
2019-02-20T06:27:41.422Z,17.57
2019-02-20T06:30:12.900Z,16.23
2019-02-20T06:32:43.658Z,19.35
2019-02-20T06:35:14.291Z,18.25
2019-02-20T06:40:15.814Z,16.27
2019-02-20T06:42:46.551Z,17.07
2019-02-20T06:45:17.324Z,17.62
2019-02-20T06:47:48.278Z,17.07
2019-02-20T06:50:19.035Z,17.60
2019-02-20T06:52:49.802Z,18.85
2019-02-20T06:55:20.321Z,17.80
2019-02-20T06:57:51.181Z,19.57
2019-02-20T07:00:21.947Z,15.65
2019-02-20T07:02:52.700Z,16.23
2019-02-20T07:05:37.979Z,15.50
2019-02-20T07:08:29.492Z,14.15
2019-02-20T07:11:18.433Z,14.85
2019-02-20T07:14:08.642Z,15.05
2019-02-20T07:16:45.410Z,12.82
2019-02-20T07:19:21.912Z,14.87
2019-02-20T07:21:58.581Z,13.95
2019-02-20T07:24:41.313Z,14.23
2019-02-20T07:27:26.997Z,15.60
2019-02-20T07:30:02.723Z,14.18
2019-02-20T07:32:33.417Z,15.75
2019-02-20T07:35:05.194Z,13.80
2019-02-20T07:37:35.544Z,10.55
2019-02-20T07:40:07.566Z,6.72
2019-02-20T07:42:39.173Z,7.87
2019-02-20T07:45:10.974Z,9.55
2019-02-20T07:47:41.829Z,7.72
2019-02-20T07:50:13.374Z,8.20
2019-02-20T07:52:43.766Z,7.72
2019-02-20T07:55:14.598Z,6.95
2019-02-20T07:57:46.766Z,6.75
2019-02-20T08:00:17.622Z,6.80
2019-02-20T08:02:48.494Z,7.90
2019-02-20T08:05:19.140Z,8.65
2019-02-20T08:07:49.780Z,8.50
2019-02-20T08:10:20.758Z,7.47
2019-02-20T16:32:09.336Z,13.08
2019-02-20T16:34:39.790Z,13.85
2019-02-20T16:37:10.544Z,14.28
2019-02-20T16:39:41.195Z,13.45
2019-02-20T16:42:12.459Z,14.58
2019-02-20T16:44:43.214Z,16.12
2019-02-20T16:47:13.660Z,14.43
2019-02-20T16:49:44.311Z,19.00
2019-02-20T16:52:15.473Z,24.63
2019-02-20T16:54:46.772Z,23.50
2019-02-20T16:57:17.185Z,26.97
2019-02-20T16:59:48.045Z,23.30
2019-02-20T17:02:18.796Z,25.45
2019-02-20T17:04:49.551Z,23.00
2019-02-20T17:09:51.726Z,22.52
2019-02-20T17:12:22.223Z,23.62
2019-02-20T17:14:53.287Z,23.00
2019-02-20T17:17:23.714Z,21.48
2019-02-20T17:19:54.688Z,23.47
2019-02-20T17:22:25.849Z,20.80
2019-02-20T17:24:56.807Z,21.62
2019-02-20T17:29:57.293Z,21.00
2019-02-20T17:34:57.681Z,33.13
2019-02-20T17:37:29.249Z,25.55
2019-02-20T17:42:29.614Z,30.83
2019-02-20T17:45:00.470Z,25.82
2019-02-20T17:47:31.139Z,28.73
2019-02-20T17:50:02.201Z,29.87
2019-02-20T17:52:33.161Z,39.83
2019-02-20T17:55:04.635Z,36.45
2019-02-20T17:57:36.085Z,34.75
2019-02-20T18:00:09.817Z,37.93
2019-02-20T18:02:40.278Z,38.42
2019-02-20T18:05:11.019Z,36.85
2019-02-20T18:07:48.587Z,35.58
2019-02-20T18:10:14.063Z,36.90
2019-02-20T18:12:44.412Z,35.10
2019-02-20T18:15:15.141Z,37.33
2019-02-20T18:17:45.793Z,37.00
2019-02-20T18:22:46.399Z,43.30
2019-02-20T18:27:46.786Z,40.52
2019-02-20T18:30:17.546Z,36.13
2019-02-20T18:32:48.196Z,34.63
2019-02-20T18:35:19.667Z,32.95
2019-02-20T18:37:50.003Z,35.00
2019-02-20T18:40:20.748Z,36.10
2019-02-20T18:42:51.388Z,36.80
2019-02-20T18:45:22.244Z,37.33
2019-02-20T18:47:53.131Z,38.78
2019-02-20T18:50:23.872Z,38.05
2019-02-20T18:52:54.506Z,38.88
2019-02-20T18:55:25.397Z,37.28
2019-02-20T18:57:56.115Z,41.48
2019-02-20T19:00:26.888Z,39.55
2019-02-20T19:02:59.869Z,41.15
2019-02-20T19:05:29.740Z,42.25
2019-02-20T19:08:00.379Z,43.13
2019-02-20T19:10:42.185Z,40.73
2019-02-20T19:13:24.603Z,40.90
2019-02-20T19:16:04.452Z,42.05
2019-02-20T19:19:02.132Z,43.10
2019-02-20T19:21:42.933Z,43.23
2019-02-20T19:24:22.410Z,44.58
2019-02-20T19:27:14.568Z,46.25
2019-02-20T19:29:51.324Z,43.55
2019-02-20T19:32:46.119Z,47.60
2019-02-20T19:35:34.594Z,46.98
2019-02-20T19:38:30.904Z,47.67
2019-02-20T19:41:17.614Z,53.75
2019-02-20T19:43:57.688Z,52.33
2019-02-20T19:46:40.095Z,50.15
2019-02-20T19:49:19.331Z,52.70
2019-02-20T19:52:05.216Z,53.15
2019-02-20T19:54:53.980Z,53.98
2019-02-20T19:57:39.852Z,55.90
2019-02-20T20:00:36.802Z,53.73
2019-02-20T20:03:13.721Z,54.55
2019-02-20T20:05:56.582Z,54.25
2019-02-20T20:08:42.384Z,52.17
2019-02-20T20:11:33.108Z,61.80
2019-02-20T20:14:18.891Z,57.35
2019-02-20T20:17:09.279Z,57.05
2019-02-20T20:20:01.472Z,60.08
2019-02-20T20:22:46.890Z,59.77
2019-02-20T20:25:24.556Z,62.05
2019-02-20T20:28:10.522Z,55.67
2019-02-20T20:30:49.980Z,57.00
2019-02-20T20:33:49.568Z,60.43
2019-02-20T20:36:38.594Z,77.12
2019-02-20T20:39:12.617Z,57.33
2019-02-20T20:42:01.376Z,51.73
2019-02-20T20:44:51.966Z,50.92
2019-02-20T20:47:48.497Z,53.73
2019-02-20T20:50:51.467Z,49.27
2019-02-20T20:53:41.945Z,49.75
2019-02-20T20:56:45.134Z,47.85
2019-02-20T20:59:24.668Z,50.75
2019-02-20T21:02:10.456Z,51.00
2019-02-20T21:04:59.432Z,52.67
2019-02-20T21:07:41.946Z,45.50
2019-02-20T21:10:18.661Z,51.28
2019-02-20T21:13:26.103Z,61.85
2019-02-20T21:16:22.835Z,84.42
2019-02-20T21:19:08.420Z,59.88
2019-02-20T21:22:03.724Z,53.65
2019-02-20T21:25:11.293Z,54.93
2019-02-20T21:28:02.909Z,66.12
2019-02-20T21:30:51.649Z,52.55
2019-02-20T21:33:43.484Z,56.55
2019-02-20T21:36:23.249Z,67.47
2019-02-20T21:39:13.951Z,83.33
2019-02-20T21:44:38.660Z,63.38
2019-02-20T21:47:30.693Z,61.35
2019-02-20T21:50:10.751Z,52.88
2019-02-20T21:52:51.187Z,50.78
2019-02-20T21:55:43.073Z,47.15
2019-02-20T21:58:41.309Z,49.60
2019-02-20T22:01:27.028Z,46.15
2019-02-20T22:04:21.868Z,45.45
2019-02-20T22:07:10.641Z,45.60
2019-02-20T22:10:01.525Z,45.95
2019-02-20T22:12:50.998Z,45.33
2019-02-20T22:15:40.565Z,43.28
2019-02-20T22:18:32.713Z,45.70
2019-02-20T22:21:32.205Z,49.38
2019-02-20T22:24:08.483Z,47.70
2019-02-20T22:26:57.238Z,48.70
2019-02-20T22:29:49.728Z,46.02
2019-02-20T22:32:20.513Z,49.08
2019-02-20T22:35:03.129Z,49.45
2019-02-20T22:37:48.921Z,52.98
2019-02-20T22:40:43.729Z,51.70
2019-02-20T22:43:29.820Z,49.45
2019-02-20T22:46:03.625Z,47.10
2019-02-20T22:48:53.932Z,49.95
2019-02-20T22:51:39.104Z,47.58
2019-02-20T22:54:18.859Z,49.55
2019-02-20T22:57:10.572Z,50.52
2019-02-20T22:59:47.061Z,50.60
2019-02-20T23:02:23.745Z,54.25
2019-02-20T23:04:57.842Z,51.77
2019-02-20T23:07:31.597Z,54.55
2019-02-20T23:10:25.243Z,57.15
2019-02-20T23:13:17.184Z,55.05
2019-02-20T23:15:48.039Z,55.43
2019-02-20T23:18:18.679Z,53.13
2019-02-20T23:23:19.177Z,51.07
2019-02-20T23:25:49.930Z,52.40
2019-02-20T23:28:20.580Z,51.00
2019-02-20T23:30:51.439Z,51.20
2019-02-20T23:33:22.178Z,51.08
2019-02-20T23:35:52.828Z,49.93
2019-02-20T23:40:54.335Z,50.27
2019-02-20T23:43:25.309Z,47.78
2019-02-20T23:45:55.959Z,46.55
2019-02-20T23:48:26.611Z,49.60
2019-02-20T23:50:57.470Z,47.38
2019-02-20T23:53:28.239Z,49.08
2019-02-20T23:55:58.976Z,49.90
2019-02-20T23:58:29.629Z,46.13
